createdAt,value
2018-04-14T00:00:33.959Z,99.90
2018-04-14T00:02:59.948Z,99.90
2018-04-14T00:05:26.730Z,99.90
2018-04-14T00:07:52.706Z,99.90
2018-04-14T00:10:18.689Z,99.90
2018-04-14T00:12:44.712Z,99.90
2018-04-14T00:15:10.716Z,99.90
2018-04-14T00:17:36.713Z,99.90
2018-04-14T00:20:02.728Z,99.90
2018-04-14T00:22:28.720Z,99.90
2018-04-14T00:24:54.753Z,99.90
2018-04-14T00:27:20.749Z,99.90
2018-04-14T00:29:46.737Z,99.90
2018-04-14T00:32:12.782Z,99.90
2018-04-14T00:34:38.782Z,99.90
2018-04-14T00:37:04.775Z,99.90
2018-04-14T00:39:30.787Z,99.90
2018-04-14T00:41:56.790Z,99.90
2018-04-14T00:44:22.829Z,99.90
2018-04-14T00:46:49.574Z,99.90
2018-04-14T00:49:15.593Z,99.90
2018-04-14T00:51:41.607Z,99.90
2018-04-14T00:54:07.610Z,99.90
2018-04-14T00:56:33.615Z,99.90
2018-04-14T00:58:59.617Z,99.90
2018-04-14T01:01:25.640Z,99.90
2018-04-14T01:03:51.649Z,99.90
2018-04-14T01:06:17.636Z,99.90
2018-04-14T01:08:43.638Z,99.90
2018-04-14T01:11:09.650Z,99.60
2018-04-14T01:13:35.634Z,99.50
2018-04-14T01:16:01.657Z,99.70
2018-04-14T01:18:27.659Z,99.80
2018-04-14T01:20:53.679Z,99.70
2018-04-14T01:23:19.740Z,99.60
2018-04-14T01:25:45.762Z,99.50
2018-04-14T01:28:11.833Z,99.40
2018-04-14T01:30:37.841Z,99.20
2018-04-14T01:33:04.587Z,98.90
2018-04-14T01:35:30.596Z,98.90
2018-04-14T01:37:56.613Z,98.80
2018-04-14T01:40:22.592Z,98.60
2018-04-14T01:42:48.610Z,98.60
2018-04-14T01:45:14.604Z,98.70
2018-04-14T01:47:41.362Z,98.60
2018-04-14T01:50:07.403Z,98.60
2018-04-14T01:52:33.447Z,98.50
2018-04-14T01:54:59.523Z,98.30
2018-04-14T01:57:25.565Z,98.20
2018-04-14T01:59:52.323Z,98.00
2018-04-14T02:02:19.075Z,97.80
2018-04-14T02:04:45.086Z,97.80
2018-04-14T02:07:11.088Z,97.70
2018-04-14T02:09:37.080Z,97.70
2018-04-14T02:12:03.071Z,97.60
2018-04-14T02:14:29.070Z,97.60
2018-04-14T02:16:55.074Z,97.60
2018-04-14T02:19:21.104Z,97.70
2018-04-14T02:21:47.950Z,97.70
2018-04-14T02:24:13.925Z,97.60
2018-04-14T02:26:40.688Z,97.00
2018-04-14T02:29:07.455Z,96.80
2018-04-14T02:31:33.470Z,96.70
2018-04-14T02:33:59.483Z,96.70
2018-04-14T02:36:25.502Z,96.70
2018-04-14T02:38:52.253Z,96.80
2018-04-14T02:41:19.003Z,96.90
2018-04-14T02:43:45.757Z,96.90
2018-04-14T02:46:12.490Z,96.90
2018-04-14T02:48:39.219Z,97.00
2018-04-14T02:51:05.252Z,97.00
2018-04-14T02:53:31.256Z,97.80
2018-04-14T02:55:57.302Z,97.40
2018-04-14T02:58:23.303Z,97.70
2018-04-14T03:00:49.298Z,97.70
2018-04-14T03:03:15.289Z,98.00
2018-04-14T03:05:41.280Z,97.90
2018-04-14T03:08:07.278Z,98.00
2018-04-14T03:10:33.289Z,97.90
2018-04-14T03:12:59.289Z,97.70
2018-04-14T03:15:25.324Z,97.70
2018-04-14T03:17:51.377Z,97.50
2018-04-14T03:20:17.374Z,97.50
2018-04-14T03:22:43.949Z,97.50
2018-04-14T03:25:10.694Z,97.50
2018-04-14T03:27:36.717Z,97.50
2018-04-14T03:30:02.733Z,97.50
2018-04-14T03:32:30.225Z,97.60
2018-04-14T03:34:56.948Z,97.80
2018-04-14T03:37:22.970Z,97.70
2018-04-14T03:39:49.688Z,98.30
2018-04-14T03:42:15.698Z,98.30
2018-04-14T03:44:41.676Z,98.40
2018-04-14T03:47:07.661Z,98.90
2018-04-14T03:49:33.656Z,99.00
2018-04-14T03:51:59.676Z,99.50
2018-04-14T03:54:26.468Z,99.40
2018-04-14T03:56:52.506Z,99.90
2018-04-14T03:59:18.518Z,99.90
2018-04-14T04:01:44.547Z,99.90
2018-04-14T04:04:10.554Z,99.90
2018-04-14T04:06:37.296Z,99.90
2018-04-14T04:09:04.015Z,99.90
2018-04-14T04:11:30.030Z,99.90
2018-04-14T04:13:56.006Z,99.90
2018-04-14T04:16:22.022Z,99.90
2018-04-14T04:19:00.354Z,99.90
2018-04-14T04:21:38.722Z,99.90
2018-04-14T04:24:18.222Z,99.90
2018-04-14T04:26:44.218Z,99.90
2018-04-14T04:29:10.207Z,99.90
2018-04-14T04:31:36.208Z,99.90
2018-04-14T04:34:02.250Z,99.90
2018-04-14T04:36:28.237Z,99.90
2018-04-14T04:38:54.223Z,99.90
2018-04-14T04:41:20.212Z,99.90
2018-04-14T04:43:46.193Z,99.90
2018-04-14T04:46:12.182Z,99.90
2018-04-14T04:48:38.172Z,99.90
2018-04-14T04:51:04.169Z,99.90
2018-04-14T04:53:30.142Z,99.90
2018-04-14T04:55:56.131Z,99.90
2018-04-14T04:58:22.191Z,99.90
2018-04-14T05:00:48.181Z,99.90
2018-04-14T05:03:14.169Z,99.90
2018-04-14T05:05:40.136Z,99.90
2018-04-14T05:08:06.117Z,99.90
2018-04-14T05:10:32.132Z,99.90
2018-04-14T05:12:58.132Z,99.90
2018-04-14T05:15:24.137Z,99.90
2018-04-14T05:17:50.141Z,99.90
2018-04-14T05:20:16.153Z,99.90
2018-04-14T05:22:42.134Z,99.90
2018-04-14T05:25:08.171Z,99.90
2018-04-14T05:27:34.187Z,99.90
2018-04-14T05:30:00.396Z,99.90
2018-04-14T05:32:26.576Z,99.90
2018-04-14T05:34:53.332Z,99.90
2018-04-14T05:37:20.060Z,99.90
2018-04-14T05:39:46.050Z,99.90
2018-04-14T05:42:12.045Z,99.90
2018-04-14T05:44:38.043Z,99.90
2018-04-14T05:47:04.054Z,99.90
2018-04-14T05:49:30.058Z,99.90
2018-04-14T05:51:56.082Z,99.90
2018-04-14T05:54:22.073Z,99.90
2018-04-14T05:56:48.867Z,99.90
2018-04-14T05:59:14.880Z,99.90
2018-04-14T06:01:40.881Z,99.90
2018-04-14T06:04:06.883Z,99.90
2018-04-14T06:06:32.887Z,99.90
2018-04-14T06:08:58.896Z,99.90
2018-04-14T06:11:24.911Z,99.90
2018-04-14T06:13:50.948Z,99.90
2018-04-14T06:16:16.972Z,99.90
2018-04-14T06:18:42.986Z,99.90
2018-04-14T06:21:08.981Z,99.90
2018-04-14T06:23:36.908Z,99.90
2018-04-14T06:26:02.904Z,99.90
2018-04-14T06:28:28.956Z,99.90
2018-04-14T06:30:54.933Z,99.90
2018-04-14T06:33:20.971Z,99.70
2018-04-14T06:35:48.510Z,99.20
2018-04-14T06:38:14.513Z,99.20
2018-04-14T06:40:40.528Z,98.90
2018-04-14T06:43:06.603Z,98.70
2018-04-14T06:45:32.625Z,98.50
2018-04-14T06:47:58.609Z,98.30
2018-04-14T06:50:24.613Z,98.30
2018-04-14T06:52:50.701Z,98.00
2018-04-14T06:55:16.714Z,97.90
2018-04-14T06:57:42.774Z,97.70
2018-04-14T07:00:08.800Z,96.90
2018-04-14T07:02:35.408Z,96.60
2018-04-14T07:05:01.456Z,96.60
2018-04-14T07:07:27.451Z,96.00
2018-04-14T07:09:53.506Z,95.90
2018-04-14T07:12:19.556Z,95.60
2018-04-14T07:14:45.570Z,95.40
2018-04-14T07:17:11.565Z,95.20
2018-04-14T07:19:38.297Z,94.60
2018-04-14T07:22:05.013Z,93.80
2018-04-14T07:24:31.828Z,93.90
2018-04-14T07:26:57.883Z,93.20
2018-04-14T07:29:23.892Z,92.80
2018-04-14T07:31:50.938Z,92.90
2018-04-14T07:34:17.083Z,92.70
2018-04-14T07:36:43.110Z,91.60
2018-04-14T07:39:09.174Z,90.70
2018-04-14T07:41:35.166Z,88.90
2018-04-14T07:44:01.185Z,88.30
2018-04-14T07:46:27.229Z,86.00
2018-04-14T07:48:53.259Z,84.80
2018-04-14T07:51:19.271Z,82.40
2018-04-14T07:53:45.298Z,82.10
2018-04-14T07:56:11.304Z,76.90
2018-04-14T07:58:37.317Z,73.50
2018-04-14T08:01:03.353Z,74.20
2018-04-14T08:03:30.127Z,73.20
2018-04-14T08:05:56.168Z,73.20
2018-04-14T08:08:22.180Z,70.20
2018-04-14T08:10:48.194Z,67.90
2018-04-14T08:13:14.944Z,66.50
2018-04-14T08:15:42.018Z,64.50
2018-04-14T08:18:08.050Z,64.40
2018-04-14T08:20:34.533Z,63.80
2018-04-14T08:23:00.560Z,62.40
2018-04-14T08:25:26.561Z,61.50
2018-04-14T08:27:52.578Z,60.80
2018-04-14T08:30:18.572Z,59.70
2018-04-14T08:32:44.588Z,59.00
2018-04-14T08:35:10.590Z,58.50
2018-04-14T08:37:36.644Z,58.80
2018-04-14T08:40:03.447Z,58.00
2018-04-14T08:42:29.453Z,57.00
2018-04-14T08:44:56.210Z,57.30
2018-04-14T08:47:22.287Z,57.30
2018-04-14T08:49:48.246Z,56.70
2018-04-14T08:52:15.026Z,55.30
2018-04-14T08:54:41.040Z,55.30
2018-04-14T08:57:07.064Z,55.30
2018-04-14T08:59:33.078Z,54.00
2018-04-14T09:01:59.108Z,53.10
2018-04-14T09:04:25.853Z,51.80
2018-04-14T09:06:52.609Z,53.00
2018-04-14T09:09:19.337Z,52.20
2018-04-14T09:11:46.078Z,51.60
2018-04-14T09:14:12.842Z,50.70
2018-04-14T09:16:39.585Z,50.90
2018-04-14T09:19:06.370Z,50.30
2018-04-14T09:21:32.373Z,50.20
2018-04-14T09:23:58.369Z,50.00
2018-04-14T09:26:25.119Z,50.50
2018-04-14T09:28:51.117Z,50.50
2018-04-14T09:31:17.132Z,50.80
2018-04-14T09:33:43.131Z,50.50
2018-04-14T09:36:09.659Z,50.90
2018-04-14T09:38:35.665Z,51.10
2018-04-14T09:41:01.661Z,51.10
2018-04-14T09:43:27.705Z,51.00
2018-04-14T09:45:53.776Z,51.20
2018-04-14T09:48:22.458Z,49.60
2018-04-14T09:50:48.538Z,49.60
2018-04-14T09:53:14.541Z,49.20
2018-04-14T09:55:40.559Z,49.80
2018-04-14T09:58:06.557Z,50.70
2018-04-14T10:00:32.584Z,50.20
2018-04-14T10:02:59.406Z,50.30
2018-04-14T10:05:25.372Z,49.90
2018-04-14T10:07:51.401Z,48.30
2018-04-14T10:10:19.429Z,48.60
2018-04-14T10:12:46.143Z,46.20
2018-04-14T10:15:12.941Z,46.50
2018-04-14T10:17:38.930Z,46.50
2018-04-14T10:20:04.994Z,45.90
2018-04-14T10:22:31.015Z,44.00
2018-04-14T10:24:57.019Z,43.40
2018-04-14T10:27:23.069Z,43.10
2018-04-14T10:29:49.074Z,43.60
2018-04-14T10:32:15.099Z,44.20
2018-04-14T10:34:41.110Z,44.70
2018-04-14T10:37:07.105Z,44.60
2018-04-14T10:39:33.186Z,46.80
2018-04-14T10:41:59.271Z,48.00
2018-04-14T10:44:25.336Z,48.50
2018-04-14T10:46:51.349Z,49.10
2018-04-14T10:49:17.375Z,47.50
2018-04-14T10:51:43.420Z,48.20
2018-04-14T10:54:09.478Z,47.80
2018-04-14T10:56:35.486Z,48.20
2018-04-14T10:59:01.484Z,48.00
2018-04-14T11:01:27.473Z,47.80
2018-04-14T11:03:53.525Z,46.90
2018-04-14T11:06:19.569Z,47.10
2018-04-14T11:08:45.596Z,46.50
2018-04-14T11:11:11.617Z,46.60
2018-04-14T11:13:37.668Z,46.80
2018-04-14T11:16:04.409Z,46.90
2018-04-14T11:18:30.586Z,46.10
2018-04-14T11:20:56.695Z,46.10
2018-04-14T11:23:22.719Z,45.00
2018-04-14T11:25:48.826Z,44.20
2018-04-14T11:28:14.837Z,43.90
2018-04-14T11:30:40.853Z,43.90
2018-04-14T11:33:06.830Z,42.20
2018-04-14T11:35:32.867Z,41.60
2018-04-14T11:37:58.877Z,40.80
2018-04-14T11:40:24.906Z,36.40
2018-04-14T11:42:50.909Z,32.80
2018-04-14T11:45:16.897Z,31.70
2018-04-14T11:47:42.908Z,30.90
2018-04-14T11:50:08.902Z,30.00
2018-04-14T11:52:34.900Z,31.30
2018-04-14T11:55:00.888Z,30.40
2018-04-14T11:57:27.674Z,28.50
2018-04-14T11:59:53.692Z,28.50
2018-04-14T12:02:19.757Z,30.20
2018-04-14T12:04:45.733Z,31.70
2018-04-14T12:07:11.729Z,32.60
2018-04-14T12:09:37.750Z,33.80
2018-04-14T12:12:03.803Z,33.40
2018-04-14T12:14:29.793Z,34.10
2018-04-14T12:16:55.780Z,33.70
2018-04-14T12:19:22.515Z,33.10
2018-04-14T12:21:49.243Z,31.50
2018-04-14T12:24:15.250Z,32.10
2018-04-14T12:26:41.241Z,29.00
2018-04-14T12:29:08.383Z,29.30
2018-04-14T12:31:34.393Z,28.70
2018-04-14T12:34:00.421Z,28.60
2018-04-14T12:36:26.429Z,29.30
2018-04-14T12:38:52.424Z,28.20
2018-04-14T12:41:27.169Z,27.90
2018-04-14T12:43:53.170Z,26.20
2018-04-14T12:46:19.208Z,26.90
2018-04-14T12:48:45.241Z,27.60
2018-04-14T12:51:11.246Z,27.60
2018-04-14T12:53:37.286Z,27.60
2018-04-14T12:56:03.331Z,28.30
2018-04-14T12:58:29.317Z,28.00
2018-04-14T13:00:55.394Z,27.30
2018-04-14T13:03:21.405Z,26.40
2018-04-14T13:05:47.499Z,25.60
2018-04-14T13:08:13.532Z,25.00
2018-04-14T13:10:39.656Z,24.00
2018-04-14T13:13:05.711Z,24.20
2018-04-14T13:15:32.462Z,23.20
2018-04-14T13:17:59.239Z,24.10
2018-04-14T13:20:25.269Z,24.10
2018-04-14T13:22:52.184Z,25.10
2018-04-14T13:25:18.181Z,24.40
2018-04-14T13:27:44.161Z,23.10
2018-04-14T13:30:10.184Z,21.60
2018-04-14T13:32:36.199Z,21.40
2018-04-14T13:35:02.216Z,21.40
2018-04-14T13:37:28.223Z,21.80
2018-04-14T13:39:54.226Z,21.90
2018-04-14T13:42:20.230Z,21.70
2018-04-14T13:44:46.242Z,21.60
2018-04-14T13:47:12.281Z,21.00
2018-04-14T13:49:38.266Z,21.10
2018-04-14T13:52:04.290Z,21.20
2018-04-14T13:54:30.298Z,21.70
2018-04-14T13:56:56.331Z,22.00
2018-04-14T13:59:22.335Z,22.80
2018-04-14T14:01:48.353Z,22.60
2018-04-14T14:04:14.351Z,22.60
2018-04-14T14:06:40.379Z,22.80
2018-04-14T14:09:07.114Z,21.90
2018-04-14T14:11:33.113Z,21.80
2018-04-14T14:13:59.425Z,23.50
2018-04-14T14:16:25.406Z,25.20
2018-04-14T14:18:51.409Z,26.30
2018-04-14T14:21:17.446Z,26.50
2018-04-14T14:23:43.452Z,26.50
2018-04-14T14:26:09.453Z,26.60
2018-04-14T14:28:35.503Z,26.90
2018-04-14T14:31:01.479Z,27.30
2018-04-14T14:33:27.480Z,27.80
2018-04-14T14:35:53.486Z,28.10
2018-04-14T14:38:19.507Z,26.80
2018-04-14T14:40:45.568Z,25.90
2018-04-14T14:43:11.549Z,26.20
2018-04-14T14:45:37.545Z,26.10
2018-04-14T14:48:03.627Z,25.90
2018-04-14T14:50:29.625Z,26.90
2018-04-14T14:52:55.638Z,28.00
2018-04-14T14:55:22.841Z,28.60
2018-04-14T14:57:48.841Z,28.60
2018-04-14T15:00:14.825Z,27.40
2018-04-14T15:02:41.031Z,27.30
2018-04-14T15:05:07.019Z,27.70
2018-04-14T15:07:33.017Z,27.90
2018-04-14T15:09:59.015Z,28.80
2018-04-14T15:12:25.006Z,29.10
2018-04-14T15:14:51.777Z,29.30
2018-04-14T15:17:17.765Z,29.20
2018-04-14T15:19:43.831Z,28.90
2018-04-14T15:22:09.830Z,27.60
2018-04-14T15:24:36.577Z,24.90
2018-04-14T15:27:03.319Z,25.60
2018-04-14T15:29:30.094Z,26.50
2018-04-14T15:31:56.293Z,26.60
2018-04-14T15:34:22.349Z,28.10
2018-04-14T15:36:49.132Z,29.50
2018-04-14T15:39:15.138Z,30.40
2018-04-14T15:41:41.893Z,33.90
2018-04-14T15:44:07.901Z,33.80
2018-04-14T15:46:33.953Z,35.50
2018-04-14T15:48:59.945Z,36.30
2018-04-14T15:51:26.726Z,36.30
2018-04-14T15:53:52.750Z,35.90
2018-04-14T15:56:18.792Z,35.70
2018-04-14T15:58:44.814Z,35.40
2018-04-14T16:01:10.858Z,34.60
2018-04-14T16:03:44.627Z,34.40
2018-04-14T16:06:02.883Z,34.00
2018-04-14T16:08:29.626Z,32.50
2018-04-14T16:10:56.415Z,32.70
2018-04-14T16:13:22.468Z,32.50
2018-04-14T16:15:48.565Z,32.70
2018-04-14T16:18:15.119Z,32.80
2018-04-14T16:20:41.225Z,32.90
2018-04-14T16:23:10.862Z,33.50
2018-04-14T16:25:37.894Z,33.50
2018-04-14T16:28:10.837Z,34.20
2018-04-14T16:30:37.102Z,34.00
2018-04-14T16:33:03.834Z,34.50
2018-04-14T16:35:29.862Z,34.50
2018-04-14T16:37:56.313Z,34.40
2018-04-14T16:40:22.321Z,34.50
2018-04-14T16:42:48.343Z,34.80
2018-04-14T16:45:14.345Z,35.50
2018-04-14T16:47:40.333Z,36.00
2018-04-14T16:50:07.079Z,37.20
2018-04-14T16:52:33.798Z,38.00
2018-04-14T16:54:59.851Z,37.90
2018-04-14T16:57:25.816Z,38.40
2018-04-14T16:59:51.900Z,39.10
2018-04-14T17:02:18.730Z,40.20
2018-04-14T17:04:44.792Z,40.10
2018-04-14T17:07:11.541Z,42.10
2018-04-14T17:09:38.331Z,43.30
2018-04-14T17:12:04.370Z,43.20
2018-04-14T17:14:30.374Z,44.40
2018-04-14T17:16:56.373Z,45.40
2018-04-14T17:19:24.090Z,47.00
2018-04-14T17:21:50.099Z,46.90
2018-04-14T17:24:16.090Z,48.10
2018-04-14T17:26:42.110Z,48.70
2018-04-14T17:29:08.848Z,49.60
2018-04-14T17:31:34.897Z,49.80
2018-04-14T17:34:00.949Z,50.50
2018-04-14T17:36:27.873Z,50.50
2018-04-14T17:38:54.622Z,52.10
2018-04-14T17:41:21.408Z,52.40
2018-04-14T17:43:47.381Z,52.30
2018-04-14T17:46:13.430Z,52.40
2018-04-14T17:48:39.437Z,52.90
2018-04-14T17:51:07.094Z,53.90
2018-04-14T17:53:33.110Z,53.90
2018-04-14T17:55:59.114Z,54.80
2018-04-14T17:58:25.154Z,55.00
2018-04-14T18:00:51.259Z,55.40
2018-04-14T18:03:17.274Z,56.20
2018-04-14T18:05:43.376Z,56.30
2018-04-14T18:08:09.522Z,56.80
2018-04-14T18:10:35.526Z,57.20
2018-04-14T18:13:01.614Z,57.80
2018-04-14T18:15:27.663Z,58.40
2018-04-14T18:17:53.678Z,58.80
2018-04-14T18:20:19.696Z,59.30
2018-04-14T18:22:45.689Z,59.70
2018-04-14T18:25:12.421Z,61.60
2018-04-14T18:27:38.436Z,61.60
2018-04-14T18:30:04.463Z,62.30
2018-04-14T18:32:30.453Z,62.20
2018-04-14T18:34:56.452Z,63.60
2018-04-14T18:37:22.430Z,64.90
2018-04-14T18:39:48.413Z,66.80
2018-04-14T18:42:14.414Z,67.60
2018-04-14T18:44:40.402Z,68.00
2018-04-14T18:47:06.381Z,68.40
2018-04-14T18:49:32.391Z,68.30
2018-04-14T18:51:58.385Z,70.50
2018-04-14T18:54:24.388Z,72.30
2018-04-14T18:56:51.189Z,75.30
2018-04-14T18:59:17.181Z,75.30
2018-04-14T19:01:43.201Z,75.70
2018-04-14T19:04:09.209Z,75.70
2018-04-14T19:06:35.233Z,76.00
2018-04-14T19:09:01.301Z,77.20
2018-04-14T19:11:27.294Z,76.90
2018-04-14T19:13:53.294Z,77.70
2018-04-14T19:16:19.314Z,77.40
2018-04-14T19:18:45.318Z,77.40
2018-04-14T19:21:11.942Z,77.40
2018-04-14T19:23:37.967Z,78.60
2018-04-14T19:26:04.768Z,79.50
2018-04-14T19:28:30.749Z,79.40
2018-04-14T19:30:56.735Z,80.40
2018-04-14T19:33:22.733Z,80.60
2018-04-14T19:35:48.822Z,81.20
2018-04-14T19:38:14.822Z,81.40
2018-04-14T19:40:40.837Z,81.70
2018-04-14T19:43:06.822Z,82.90
2018-04-14T19:45:32.843Z,83.50
2018-04-14T19:47:59.662Z,84.30
2018-04-14T19:50:25.634Z,84.30
2018-04-14T19:52:52.420Z,85.30
2018-04-14T19:55:18.415Z,85.30
2018-04-14T19:57:44.412Z,84.70
2018-04-14T20:00:10.426Z,84.70
2018-04-14T20:02:36.412Z,85.00
2018-04-14T20:05:02.411Z,85.30
2018-04-14T20:07:28.430Z,85.00
2018-04-14T20:09:55.181Z,85.30
2018-04-14T20:12:21.197Z,85.30
2018-04-14T20:14:47.558Z,84.90
2018-04-14T20:17:14.294Z,84.70
2018-04-14T20:19:41.053Z,84.50
2018-04-14T20:22:07.005Z,84.50
2018-04-14T20:24:32.992Z,84.40
2018-04-14T20:26:58.986Z,84.50
2018-04-14T20:29:25.815Z,83.90
2018-04-14T20:31:51.880Z,84.00
2018-04-14T20:34:17.894Z,84.30
2018-04-14T20:36:43.997Z,84.00
2018-04-14T20:39:10.084Z,83.80
2018-04-14T20:41:36.105Z,84.30
2018-04-14T20:44:02.146Z,84.00
2018-04-14T20:46:28.952Z,85.30
2018-04-14T20:48:54.944Z,84.50
2018-04-14T20:51:20.953Z,84.30
2018-04-14T20:53:47.768Z,84.20
2018-04-14T20:56:13.774Z,84.20
2018-04-14T20:58:39.781Z,85.30
2018-04-14T21:01:05.804Z,84.40
2018-04-14T21:03:31.812Z,85.30
2018-04-14T21:05:58.590Z,84.50
2018-04-14T21:08:24.581Z,84.50
2018-04-14T21:10:50.569Z,84.40
2018-04-14T21:13:16.555Z,84.20
2018-04-14T21:15:42.551Z,84.40
2018-04-14T21:18:08.644Z,84.50
2018-04-14T21:20:34.639Z,84.70
2018-04-14T21:23:00.625Z,84.50
2018-04-14T21:25:26.692Z,84.30
2018-04-14T21:27:53.438Z,84.40
2018-04-14T21:30:20.402Z,84.50
2018-04-14T21:32:46.447Z,84.40
2018-04-14T21:35:12.425Z,84.40
2018-04-14T21:37:38.705Z,85.00
2018-04-14T21:40:04.699Z,85.40
2018-04-14T21:42:31.478Z,85.70
2018-04-14T21:44:57.538Z,85.60
2018-04-14T21:47:23.638Z,85.40
2018-04-14T21:49:51.641Z,85.60
2018-04-14T21:52:19.782Z,85.90
2018-04-14T21:54:46.047Z,86.00
2018-04-14T21:57:12.075Z,85.80
2018-04-14T21:59:38.074Z,86.00
2018-04-14T22:02:04.854Z,85.10
2018-04-14T22:04:32.682Z,85.00
2018-04-14T22:06:58.818Z,84.80
2018-04-14T22:09:24.850Z,85.10
2018-04-14T22:11:51.001Z,85.40
2018-04-14T22:14:29.321Z,85.10
2018-04-14T22:16:55.329Z,84.80
2018-04-14T22:19:21.428Z,85.20
2018-04-14T22:21:48.995Z,85.10
2018-04-14T22:24:15.183Z,85.10
2018-04-14T22:26:41.190Z,86.00
2018-04-14T22:29:07.945Z,91.60
2018-04-14T22:31:34.501Z,91.60
2018-04-14T22:34:00.499Z,92.40
2018-04-14T22:36:27.402Z,93.20
2018-04-14T22:38:53.466Z,94.00
2018-04-14T22:41:19.453Z,94.90
2018-04-14T22:43:45.457Z,95.60
2018-04-14T22:46:11.444Z,96.30
2018-04-14T22:48:37.422Z,96.70
2018-04-14T22:51:03.451Z,97.30
2018-04-14T22:53:29.454Z,97.00
2018-04-14T22:55:55.437Z,97.20
2018-04-14T22:58:21.427Z,97.40
2018-04-14T23:00:47.422Z,97.50
2018-04-14T23:03:13.442Z,97.50
2018-04-14T23:05:39.441Z,97.40
2018-04-14T23:08:05.426Z,97.80
2018-04-14T23:10:31.485Z,98.00
2018-04-14T23:12:58.307Z,98.00
2018-04-14T23:15:24.305Z,97.80
2018-04-14T23:17:50.278Z,97.80
2018-04-14T23:20:16.302Z,98.10
2018-04-14T23:22:42.317Z,98.50
2018-04-14T23:25:08.325Z,98.50
2018-04-14T23:27:34.386Z,98.40
2018-04-14T23:30:00.390Z,98.30
2018-04-14T23:32:26.392Z,98.10
2018-04-14T23:34:52.404Z,98.30
2018-04-14T23:37:18.409Z,98.30
2018-04-14T23:39:44.423Z,98.50
2018-04-14T23:42:10.426Z,98.30
2018-04-14T23:44:36.413Z,98.40
2018-04-14T23:47:02.406Z,98.50
2018-04-14T23:49:28.394Z,98.60
2018-04-14T23:51:54.382Z,99.10
2018-04-14T23:54:20.434Z,99.60
2018-04-14T23:56:46.424Z,99.50
2018-04-14T23:59:12.415Z,99.60
